Time;durP1;ratioP1;P1;durP2;ratioP2;P2;SDS_P1;SDS_P2;PMS_P1;PMS_P2;Temp;Humidity;BMP_temperature;BMP_pressure;BME280_temperature;BME280_humidity;BME280_pressure;Samples;Min_cycle;Max_cycle;Signal;HPM_P1;HPM_P2
2023/09/18 00:00:26;;;;;;;;;1.00;1.00;;;;;25.86;100.00;100034.28;2123268;27;46420;-64
2023/09/18 00:01:27;;;;;;;;;2.00;2.00;;;;;25.83;100.00;100027.28;2123026;27;46455;-64
2023/09/18 00:02:29;;;;;;;;;4.00;4.00;;;;;25.81;100.00;100035.56;2121590;27;46496;-64
2023/09/18 00:03:29;;;;;;;;;4.50;3.75;;;;;25.79;100.00;100037.59;2114450;27;46417;-64
2023/09/18 00:04:30;;;;;;;;;3.67;3.67;;;;;25.79;100.00;100032.16;2122348;27;46673;-63
2023/09/18 00:05:31;;;;;;;;;2.67;2.00;;;;;25.77;100.00;100028.69;2121837;27;46619;-63
2023/09/18 00:06:32;;;;;;;;;4.00;3.00;;;;;25.76;100.00;100028.84;2123073;27;46839;-64
2023/09/18 00:07:32;;;;;;;;;5.25;3.50;;;;;25.72;100.00;100032.88;2119609;27;46859;-63
2023/09/18 00:08:33;;;;;;;;;3.33;3.00;;;;;25.70;100.00;100038.47;2120945;27;46345;-64
2023/09/18 00:09:33;;;;;;;;;5.00;5.00;;;;;25.67;100.00;100044.16;2115876;27;46330;-63
2023/09/18 00:10:34;;;;;;;;;2.00;2.00;;;;;25.65;100.00;100039.84;2116176;27;46720;-64
2023/09/18 00:11:34;;;;;;;;;6.00;4.00;;;;;25.60;100.00;100039.44;2122883;27;46124;-64
2023/09/18 00:12:35;;;;;;;;;2.00;2.00;;;;;25.59;100.00;100040.47;2122517;27;46706;-64
2023/09/18 00:13:35;;;;;;;;;4.33;2.67;;;;;25.58;100.00;100038.75;2114118;27;46212;-64
2023/09/18 00:14:37;;;;;;;;;4.00;4.00;;;;;25.56;100.00;100029.88;2113466;27;46923;-64
2023/09/18 00:15:38;;;;;;;;;2.00;2.00;;;;;25.50;100.00;100029.44;2123005;27;46799;-64
2023/09/18 00:16:38;;;;;;;;;1.00;1.00;;;;;25.51;100.00;100030.31;2123449;27;46688;-64
2023/09/18 00:17:39;;;;;;;;;2.00;2.00;;;;;25.51;100.00;100039.31;2123046;27;46401;-63
2023/09/18 00:18:40;;;;;;;;;1.00;1.00;;;;;25.55;100.00;100041.75;2123122;27;46416;-62
2023/09/18 00:19:41;;;;;;;;;1.75;1.75;;;;;25.57;100.00;100032.44;2123450;27;46581;-63
2023/09/18 00:20:42;;;;;;;;;2.00;2.00;;;;;25.61;100.00;100042.00;2122967;27;46219;-63
2023/09/18 00:21:42;;;;;;;;;3.67;3.67;;;;;25.63;100.00;100050.88;2123158;27;46520;-63
2023/09/18 00:22:43;;;;;;;;;3.00;2.00;;;;;25.65;100.00;100040.72;2121807;27;45885;-63
2023/09/18 00:23:43;;;;;;;;;2.00;2.00;;;;;25.66;100.00;100030.69;2123302;27;46846;-63
2023/09/18 00:24:43;;;;;;;;;2.00;2.00;;;;;25.65;100.00;100050.72;2122633;27;46013;-62
2023/09/18 00:25:44;;;;;;;;;1.33;1.33;;;;;25.66;100.00;100044.28;2123017;27;46264;-63
2023/09/18 00:26:46;;;;;;;;;2.00;1.00;;;;;25.68;100.00;100047.75;2113894;27;46375;-63
2023/09/18 00:27:47;;;;;;;;;2.75;2.50;;;;;25.70;100.00;100038.47;2105429;27;46642;-61
2023/09/18 00:28:47;;;;;;;;;2.00;1.33;;;;;25.69;100.00;100044.03;2114089;27;46033;-63
2023/09/18 00:29:47;;;;;;;;;0.67;0.67;;;;;25.68;100.00;100043.16;2122974;27;46183;-64
2023/09/18 00:30:49;;;;;;;;;2.00;1.33;;;;;25.67;100.00;100037.88;2123783;27;46610;-64
2023/09/18 00:31:50;;;;;;;;;3.25;1.00;;;;;25.67;100.00;100040.59;2122808;27;46821;-64
2023/09/18 00:32:50;;;;;;;;;3.00;2.33;;;;;25.65;100.00;100046.16;2123189;27;46490;-62
2023/09/18 00:33:51;;;;;;;;;1.67;1.67;;;;;25.69;100.00;100049.47;2122968;27;46340;-63
2023/09/18 00:34:51;;;;;;;;;1.00;1.00;;;;;25.70;100.00;100038.47;2122710;27;46203;-60
2023/09/18 00:35:52;;;;;;;;;1.67;1.67;;;;;25.71;100.00;100045.59;2122969;27;46286;-62
2023/09/18 00:36:52;;;;;;;;;3.00;3.00;;;;;25.72;100.00;100049.19;2123002;27;46498;-62
2023/09/18 00:37:52;;;;;;;;;2.00;2.00;;;;;25.68;100.00;100045.88;2104347;28;46207;-62
2023/09/18 00:38:53;;;;;;;;;2.00;2.00;;;;;25.68;100.00;100053.19;2103368;27;45986;-63
2023/09/18 00:39:53;;;;;;;;;1.00;1.00;;;;;25.65;100.00;100045.28;2113777;27;46353;-63
2023/09/18 00:40:53;;;;;;;;;1.00;1.00;;;;;25.62;100.00;100038.28;2113572;27;46629;-62
2023/09/18 00:41:54;;;;;;;;;1.00;1.00;;;;;25.61;100.00;100031.16;2122415;27;46332;-63
2023/09/18 00:42:54;;;;;;;;;2.00;2.00;;;;;25.62;100.00;100043.72;2120232;27;46297;-62
2023/09/18 00:43:55;;;;;;;;;1.67;1.00;;;;;25.63;100.00;100041.88;2122769;27;46543;-62
2023/09/18 00:44:55;;;;;;;;;1.00;1.00;;;;;25.64;100.00;100041.72;2122925;27;46436;-62
2023/09/18 00:45:55;;;;;;;;;2.00;2.00;;;;;25.64;100.00;100047.16;2104085;28;45991;-61
2023/09/18 00:46:56;;;;;;;;;2.00;2.00;;;;;25.65;100.00;100046.16;2104834;28;45667;-62
2023/09/18 00:47:56;;;;;;;;;1.33;0.67;;;;;25.65;100.00;100046.16;2104877;28;46383;-63
2023/09/18 00:48:57;;;;;;;;;0.00;0.00;;;;;25.64;100.00;100040.84;2104740;28;46506;-62
2023/09/18 00:49:58;;;;;;;;;1.67;1.67;;;;;25.64;100.00;100041.72;2104476;28;46448;-63
2023/09/18 00:50:58;;;;;;;;;2.75;2.75;;;;;25.65;100.00;100042.56;2104732;28;46689;-62
2023/09/18 00:51:58;;;;;;;;;1.00;1.00;;;;;25.63;100.00;100040.00;2104843;28;46915;-63
2023/09/18 00:53:01;;;;;;;;;1.00;1.00;;;;;25.62;100.00;100049.16;2104856;28;46273;-62
2023/09/18 00:54:01;;;;;;;;;1.00;1.00;;;;;25.63;100.00;100045.44;2104318;28;46691;-62
2023/09/18 00:55:02;;;;;;;;;1.00;1.00;;;;;25.64;100.00;100043.56;2105053;28;46657;-63
2023/09/18 00:56:03;;;;;;;;;4.00;2.67;;;;;25.65;100.00;100048.00;2103380;28;46392;-62
2023/09/18 00:57:05;;;;;;;;;3.00;1.00;;;;;25.65;100.00;100043.44;2104638;28;46534;-63
2023/09/18 00:58:07;;;;;;;;;1.50;1.50;;;;;25.64;100.00;100038.13;2110103;27;46812;-63
2023/09/18 00:59:08;;;;;;;;;1.50;0.25;;;;;25.62;100.00;100042.88;2105341;27;46315;-63
2023/09/18 01:00:09;;;;;;;;;1.00;1.00;;;;;25.60;100.00;100037.59;2104709;28;46313;-64
2023/09/18 01:01:10;;;;;;;;;1.00;1.00;;;;;25.61;100.00;100041.16;2104399;28;46037;-63
2023/09/18 01:02:11;;;;;;;;;0.25;0.25;;;;;25.60;100.00;100040.31;2104529;28;46598;-63
2023/09/18 01:03:11;;;;;;;;;2.00;2.00;;;;;25.58;100.00;100036.88;2105043;28;46521;-63
2023/09/18 01:04:13;;;;;;;;;0.33;0.33;;;;;25.59;100.00;100054.03;2105419;27;46013;-63
2023/09/18 01:05:16;;;;;;;;;0.75;0.75;;;;;25.59;100.00;100060.34;2105166;28;46458;-63
2023/09/18 01:06:19;;;;;;;;;5.00;1.00;;;;;25.59;100.00;100059.47;2105001;28;46801;-62
2023/09/18 01:07:20;;;;;;;;;0.00;0.00;;;;;25.59;100.00;100063.06;2104748;28;46451;-62
2023/09/18 01:08:20;;;;;;;;;3.00;1.00;;;;;25.59;100.00;100070.34;2105077;28;46979;-62
2023/09/18 01:09:20;;;;;;;;;0.67;0.00;;;;;25.59;100.00;100064.91;2105027;28;46588;-63
2023/09/18 01:10:28;;;;;;;;;1.67;1.67;;;;;25.58;100.00;100063.19;2104599;28;46849;-63
2023/09/18 01:11:46;;;;;;;;;1.50;0.75;;;;;25.56;100.00;100068.78;2104845;28;46290;-63
2023/09/18 01:12:55;;;;;;;;;0.25;0.25;;;;;25.56;100.00;100067.91;2104296;27;46599;-63
2023/09/18 01:14:08;;;;;;;;;0.50;0.00;;;;;25.51;100.00;100066.47;2101074;28;46839;-64
2023/09/18 01:15:20;;;;;;;;;0.75;0.75;;;;;25.49;100.00;100068.50;2104272;28;46265;-62
2023/09/18 01:16:27;;;;;;;;;1.00;1.00;;;;;25.48;100.00;100074.94;2104917;28;46531;-62
2023/09/18 01:17:29;;;;;;;;;1.00;0.00;;;;;25.49;100.00;100064.91;2109536;27;46781;-62
2023/09/18 01:18:29;;;;;;;;;3.50;3.25;;;;;25.50;100.00;100061.19;2122830;27;46646;-62
2023/09/18 01:19:46;;;;;;;;;1.67;1.67;;;;;25.49;100.00;100054.91;2122844;27;46388;-62
2023/09/18 01:20:46;;;;;;;;;1.00;1.00;;;;;25.48;100.00;100055.91;2121882;27;45841;-63
2023/09/18 01:21:47;;;;;;;;;0.00;0.00;;;;;25.49;100.00;100057.63;2116000;27;46799;-62
2023/09/18 01:22:49;;;;;;;;;1.00;0.33;;;;;25.50;100.00;100055.75;2113581;27;46217;-64
2023/09/18 01:23:51;;;;;;;;;1.00;1.00;;;;;25.50;100.00;100048.47;2114012;27;46483;-63
2023/09/18 01:24:51;;;;;;;;;1.00;1.00;;;;;25.51;100.00;100054.75;2122723;27;46448;-64
2023/09/18 01:25:51;;;;;;;;;1.00;1.00;;;;;25.47;100.00;100051.47;2113366;27;46760;-62
2023/09/18 01:26:52;;;;;;;;;0.67;0.67;;;;;25.45;100.00;100052.63;2113636;27;46631;-62
2023/09/18 01:27:52;;;;;;;;;0.00;0.00;;;;;25.43;100.00;100055.50;2121957;27;46473;-63
2023/09/18 01:28:52;;;;;;;;;1.33;1.00;;;;;25.44;100.00;100061.78;2122663;27;46166;-62
2023/09/18 01:29:53;;;;;;;;;0.33;0.33;;;;;25.45;100.00;100058.06;2122170;27;46183;-63
2023/09/18 01:30:53;;;;;;;;;0.00;0.00;;;;;25.45;100.00;100052.63;2114430;27;46811;-63
2023/09/18 01:31:54;;;;;;;;;0.67;0.67;;;;;25.41;100.00;100048.47;2112447;27;46300;-63
2023/09/18 01:32:58;;;;;;;;;0.33;0.33;;;;;25.38;100.00;100055.06;2122734;27;46762;-63
2023/09/18 01:34:00;;;;;;;;;2.00;2.00;;;;;25.37;100.00;100050.63;2122385;27;46375;-63
2023/09/18 01:35:05;;;;;;;;;0.00;0.00;;;;;25.42;100.00;100050.22;2122471;27;46298;-62
2023/09/18 01:36:08;;;;;;;;;0.00;0.00;;;;;25.45;100.00;100052.63;2123035;27;46847;-62
2023/09/18 01:37:13;;;;;;;;;1.75;1.75;;;;;25.48;100.00;100046.91;2122187;27;46901;-60
2023/09/18 01:38:14;;;;;;;;;0.00;0.00;;;;;25.47;100.00;100048.75;2122553;27;46312;-63
2023/09/18 01:39:15;;;;;;;;;0.00;0.00;;;;;25.50;100.00;100039.47;2113240;27;46388;-62
2023/09/18 01:40:17;;;;;;;;;0.00;0.00;;;;;25.49;100.00;100046.75;2104772;27;46483;-63
2023/09/18 01:41:17;;;;;;;;;0.75;0.75;;;;;25.48;100.00;100046.91;2114080;27;47636;-63
2023/09/18 01:42:18;;;;;;;;;0.00;0.00;;;;;25.48;100.00;100050.47;2121878;27;46925;-63
2023/09/18 01:43:18;;;;;;;;;0.67;0.67;;;;;25.48;100.00;100052.34;2113632;27;46641;-63
2023/09/18 01:44:19;;;;;;;;;1.00;1.00;;;;;25.46;100.00;100057.91;2113302;27;46240;-62
2023/09/18 01:45:19;;;;;;;;;0.67;0.67;;;;;25.45;100.00;100058.91;2122595;27;46454;-63
2023/09/18 01:46:20;;;;;;;;;0.00;0.00;;;;;25.43;100.00;100052.78;2122506;27;46439;-64
2023/09/18 01:47:23;;;;;;;;;0.00;0.00;;;;;25.43;100.00;100052.78;2122789;27;46408;-63
2023/09/18 01:48:23;;;;;;;;;0.00;0.00;;;;;25.43;100.00;100049.22;2122676;27;46279;-62
2023/09/18 01:49:32;;;;;;;;;0.00;0.00;;;;;25.43;100.00;100044.63;2121076;27;46235;-63
2023/09/18 01:50:33;;;;;;;;;0.00;0.00;;;;;25.43;100.00;100044.63;2122720;27;45765;-62
2023/09/18 01:51:33;;;;;;;;;2.00;1.00;;;;;25.43;100.00;100047.34;2122524;27;46732;-61
2023/09/18 01:52:34;;;;;;;;;0.33;0.33;;;;;25.44;100.00;100045.50;2119956;27;46253;-63
2023/09/18 01:53:34;;;;;;;;;0.50;0.50;;;;;25.41;100.00;100046.63;2114674;27;46714;-62
2023/09/18 01:54:35;;;;;;;;;0.00;0.00;;;;;25.39;100.00;100045.03;2120960;27;46492;-60
2023/09/18 01:55:36;;;;;;;;;0.00;0.00;;;;;25.36;100.00;100048.91;2122411;27;46554;-64
2023/09/18 01:56:36;;;;;;;;;1.00;0.00;;;;;25.33;100.00;100038.34;2122424;27;46593;-64
2023/09/18 01:57:37;;;;;;;;;0.00;0.00;;;;;25.34;100.00;100045.50;2122037;27;46689;-64
2023/09/18 01:58:38;;;;;;;;;0.00;0.00;;;;;25.33;100.00;100042.91;2122426;27;46387;-63
2023/09/18 01:59:38;;;;;;;;;1.00;0.00;;;;;25.33;100.00;100041.06;2113421;27;46756;-62
2023/09/18 02:00:38;;;;;;;;;0.00;0.00;;;;;25.33;100.00;100043.78;2113226;27;46708;-62
2023/09/18 02:01:39;;;;;;;;;0.33;0.00;;;;;25.34;100.00;100037.34;2122514;27;46556;-66
2023/09/18 02:02:40;;;;;;;;;1.00;0.00;;;;;25.35;100.00;100043.63;2122088;27;46158;-63
2023/09/18 02:03:41;;;;;;;;;1.00;0.00;;;;;25.35;100.00;100041.75;2121945;27;46065;-63
2023/09/18 02:04:41;;;;;;;;;0.00;0.00;;;;;25.36;100.00;100040.75;2122528;27;46991;-61
2023/09/18 02:05:42;;;;;;;;;0.67;0.00;;;;;25.38;100.00;100043.34;2122463;27;46394;-62
2023/09/18 02:06:43;;;;;;;;;0.00;0.00;;;;;25.39;100.00;100047.75;2121256;27;46742;-60
2023/09/18 02:07:43;;;;;;;;;0.00;0.00;;;;;25.40;100.00;100046.75;2123119;27;46567;-62
2023/09/18 02:08:43;;;;;;;;;0.67;0.00;;;;;25.41;100.00;100045.75;2122334;27;48183;-64
2023/09/18 02:09:44;;;;;;;;;0.00;0.00;;;;;25.39;100.00;100042.31;2121976;27;46741;-63
2023/09/18 02:10:44;;;;;;;;;1.00;1.00;;;;;25.37;100.00;100047.91;2122250;27;46209;-63
2023/09/18 02:11:47;;;;;;;;;0.00;0.00;;;;;25.35;100.00;100043.63;2121930;27;46589;-62
2023/09/18 02:12:47;;;;;;;;;1.25;1.00;;;;;25.31;100.00;100045.78;2122261;27;46687;-62
2023/09/18 02:13:48;;;;;;;;;0.00;0.00;;;;;25.28;100.00;100046.03;2122210;27;46396;-62
2023/09/18 02:14:58;;;;;;;;;0.00;0.00;;;;;25.24;100.00;100056.34;2128116;27;44969;-62
2023/09/18 02:15:58;;;;;;;;;1.00;1.00;;;;;25.22;100.00;100057.50;2120599;27;46694;-63
2023/09/18 02:16:58;;;;;;;;;0.00;0.00;;;;;25.21;100.00;100059.34;2119989;27;46270;-62
2023/09/18 02:18:02;;;;;;;;;0.00;0.00;;;;;25.20;100.00;100060.34;2120952;27;46786;-64
2023/09/18 02:19:03;;;;;;;;;0.00;0.00;;;;;25.18;100.00;100064.22;2111761;27;45825;-64
2023/09/18 02:20:11;;;;;;;;;0.00;0.00;;;;;25.18;100.00;100064.22;2111717;27;46367;-63
2023/09/18 02:21:11;;;;;;;;;0.00;0.00;;;;;25.20;100.00;100059.50;2120735;27;47141;-63
2023/09/18 02:22:11;;;;;;;;;0.33;0.33;;;;;25.22;100.00;100057.50;2120477;27;46284;-62
2023/09/18 02:23:12;;;;;;;;;0.00;0.00;;;;;25.22;100.00;100060.22;2120761;27;46772;-63
2023/09/18 02:24:12;;;;;;;;;0.00;0.00;;;;;25.22;100.00;100062.94;2119548;27;46306;-63
2023/09/18 02:25:13;;;;;;;;;0.67;0.67;;;;;25.23;100.00;100060.06;2120636;27;46782;-63
2023/09/18 02:26:13;;;;;;;;;0.00;0.00;;;;;25.21;100.00;100066.66;2119571;27;46298;-64
2023/09/18 02:27:13;;;;;;;;;0.00;0.00;;;;;25.20;100.00;100063.06;2119821;27;46171;-63
2023/09/18 02:28:14;;;;;;;;;0.00;0.00;;;;;25.19;100.00;100074.94;2111353;27;46391;-63
2023/09/18 02:29:14;;;;;;;;;0.00;0.00;;;;;25.18;100.00;100077.81;2111894;27;46615;-63
2023/09/18 02:30:15;;;;;;;;;3.00;1.00;;;;;25.17;100.00;100073.38;2120077;27;46420;-64
2023/09/18 02:31:16;;;;;;;;;0.33;0.33;;;;;25.16;100.00;100074.38;2115283;27;46525;-63
2023/09/18 02:32:16;;;;;;;;;1.00;0.00;;;;;25.14;100.00;100071.78;2114341;27;46705;-63
2023/09/18 02:33:17;;;;;;;;;0.00;0.00;;;;;25.15;100.00;100064.50;2116778;27;46693;-64
2023/09/18 02:34:19;;;;;;;;;2.00;2.00;;;;;25.15;100.00;100059.06;2119649;27;46444;-64
2023/09/18 02:35:19;;;;;;;;;1.75;1.00;;;;;25.13;100.00;100071.91;2120395;27;46851;-63
2023/09/18 02:36:19;;;;;;;;;0.00;0.00;;;;;25.11;100.00;100066.63;2112455;27;46189;-63
2023/09/18 02:37:20;;;;;;;;;1.33;1.00;;;;;25.12;100.00;100075.63;2111123;27;46660;-64
2023/09/18 02:38:20;;;;;;;;;2.67;1.00;;;;;25.12;100.00;100068.34;2111470;27;46607;-64
2023/09/18 02:39:21;;;;;;;;;0.00;0.00;;;;;25.13;100.00;100070.06;2099206;28;45524;-64
2023/09/18 02:40:21;;;;;;;;;0.00;0.00;;;;;25.15;100.00;100073.50;2110860;27;46765;-61
2023/09/18 02:41:21;;;;;;;;;0.33;0.00;;;;;25.16;100.00;100066.22;2115794;27;46577;-64
2023/09/18 02:42:21;;;;;;;;;0.00;0.00;;;;;25.16;100.00;100074.38;2120409;27;46629;-64
2023/09/18 02:43:23;;;;;;;;;0.00;0.00;;;;;25.17;100.00;100084.25;2120582;27;46548;-64
2023/09/18 02:44:23;;;;;;;;;1.00;1.00;;;;;25.15;100.00;100073.50;2120343;27;46253;-64
2023/09/18 02:45:24;;;;;;;;;0.33;0.33;;;;;25.13;100.00;100080.94;2120285;27;46465;-64
2023/09/18 02:46:24;;;;;;;;;0.33;0.00;;;;;25.09;100.00;100073.22;2120440;27;46551;-64
2023/09/18 02:47:24;;;;;;;;;0.67;0.67;;;;;25.07;100.00;100067.06;2120414;27;46218;-63
2023/09/18 02:48:24;;;;;;;;;0.00;0.00;;;;;25.05;100.00;100069.94;2116667;27;46680;-64
2023/09/18 02:49:25;;;;;;;;;1.67;1.00;;;;;25.03;100.00;100068.34;2114350;27;46786;-64
2023/09/18 02:50:25;;;;;;;;;1.00;1.00;;;;;25.02;100.00;100069.34;2104660;27;46387;-64
2023/09/18 02:51:25;;;;;;;;;0.00;0.00;;;;;25.01;100.00;100070.34;2111180;27;46397;-64
2023/09/18 02:52:26;;;;;;;;;0.67;0.67;;;;;25.01;100.00;100064.91;2119933;27;46357;-64
2023/09/18 02:53:26;;;;;;;;;1.67;0.00;;;;;24.99;100.00;100069.59;2120315;27;46541;-64
2023/09/18 02:54:27;;;;;;;;;1.00;1.00;;;;;24.97;100.00;100061.59;2120309;27;46206;-63
2023/09/18 02:55:27;;;;;;;;;2.00;1.00;;;;;24.95;100.00;100067.16;2119695;27;47696;-62
2023/09/18 02:56:27;;;;;;;;;1.00;1.00;;;;;24.95;100.00;100067.16;2117787;27;46583;-63
2023/09/18 02:57:28;;;;;;;;;4.00;2.00;;;;;24.94;100.00;100065.47;2120416;27;46691;-63
2023/09/18 02:58:30;;;;;;;;;1.00;1.00;;;;;24.91;100.00;100068.47;2128619;27;46269;-64
2023/09/18 02:59:31;;;;;;;;;0.50;0.50;;;;;24.92;100.00;100075.59;2123672;27;46612;-64
2023/09/18 03:00:31;;;;;;;;;1.00;1.00;;;;;24.91;100.00;100065.75;2119850;27;46801;-63
2023/09/18 03:01:31;;;;;;;;;1.00;1.00;;;;;24.93;100.00;100061.03;2119593;27;46853;-64
2023/09/18 03:02:32;;;;;;;;;1.00;1.00;;;;;24.94;100.00;100065.47;2119838;27;46329;-63
2023/09/18 03:03:33;;;;;;;;;1.00;1.00;;;;;24.98;100.00;100067.88;2120553;27;46515;-64
2023/09/18 03:04:33;;;;;;;;;1.00;1.00;;;;;24.95;100.00;100059.03;2118738;27;46330;-64
2023/09/18 03:05:34;;;;;;;;;0.00;0.00;;;;;24.90;100.00;100060.44;2120259;27;46679;-64
2023/09/18 03:06:38;;;;;;;;;1.00;1.00;;;;;24.89;100.00;100059.56;2120561;27;46181;-64
2023/09/18 03:07:38;;;;;;;;;1.75;0.50;;;;;24.86;100.00;100057.16;2120264;27;46447;-64
2023/09/18 03:08:38;;;;;;;;;0.33;0.33;;;;;24.86;100.00;100049.00;2120165;27;46450;-63
2023/09/18 03:09:39;;;;;;;;;1.00;1.00;;;;;24.85;100.00;100052.72;2120146;27;46404;-63
2023/09/18 03:10:42;;;;;;;;;0.00;0.00;;;;;24.87;100.00;100049.88;2120063;27;46288;-64
2023/09/18 03:11:43;;;;;;;;;0.75;0.75;;;;;24.87;100.00;100049.88;2118705;27;46462;-63
2023/09/18 03:12:47;;;;;;;;;1.00;1.00;;;;;24.90;100.00;100046.84;2120397;27;46323;-64
2023/09/18 03:13:48;;;;;;;;;1.00;1.00;;;;;24.92;100.00;100051.19;2119736;27;46355;-64
2023/09/18 03:14:48;;;;;;;;;1.00;1.00;;;;;24.91;100.00;100044.03;2120062;27;46263;-64
2023/09/18 03:15:48;;;;;;;;;1.00;1.00;;;;;24.87;100.00;100045.28;2097304;27;46677;-64
2023/09/18 03:16:50;;;;;;;;;1.00;1.00;;;;;24.84;100.00;100044.72;2093900;28;46258;-63
2023/09/18 03:17:50;;;;;;;;;0.75;0.75;;;;;24.86;100.00;100042.72;2111604;27;46663;-64
2023/09/18 03:18:51;;;;;;;;;1.33;1.33;;;;;24.83;100.00;100040.31;2106947;27;46135;-64
2023/09/18 03:19:51;;;;;;;;;0.33;0.00;;;;;24.85;100.00;100043.72;2110881;27;46246;-63
2023/09/18 03:20:51;;;;;;;;;1.00;1.00;;;;;24.88;100.00;100048.88;2111345;27;46800;-64
2023/09/18 03:21:51;;;;;;;;;0.00;0.00;;;;;24.82;100.00;100042.16;2110941;27;46466;-63
2023/09/18 03:22:55;;;;;;;;;1.67;1.67;;;;;24.81;100.00;100039.59;2120087;27;46568;-62
2023/09/18 03:23:55;;;;;;;;;2.00;2.00;;;;;24.84;100.00;100040.16;2119952;27;46736;-63
2023/09/18 03:24:55;;;;;;;;;0.33;0.33;;;;;24.83;100.00;100035.72;2120359;27;46476;-64
2023/09/18 03:25:56;;;;;;;;;1.67;1.67;;;;;24.85;100.00;100047.28;2116297;27;46208;-64
2023/09/18 03:26:56;;;;;;;;;2.00;2.00;;;;;24.90;100.00;100045.03;2114140;27;46612;-63
2023/09/18 03:27:57;;;;;;;;;0.67;0.67;;;;;24.91;100.00;100038.59;2103968;28;46274;-64
2023/09/18 03:28:58;;;;;;;;;3.25;2.00;;;;;24.92;100.00;100040.31;2105434;27;46575;-63
2023/09/18 03:29:58;;;;;;;;;1.33;1.33;;;;;24.91;100.00;100041.31;2114031;27;46520;-64
2023/09/18 03:30:59;;;;;;;;;0.67;0.67;;;;;24.93;100.00;100043.88;2114447;27;46436;-63
2023/09/18 03:31:59;;;;;;;;;1.00;1.00;;;;;24.95;100.00;100050.88;2113987;27;46652;-63
2023/09/18 03:32:59;;;;;;;;;1.00;1.00;;;;;24.96;100.00;100043.59;2104106;28;46349;-64
2023/09/18 03:34:00;;;;;;;;;1.67;0.67;;;;;24.96;100.00;100043.59;2103900;28;47146;-64
2023/09/18 03:35:00;;;;;;;;;0.00;0.00;;;;;24.97;100.00;100039.03;2110929;27;46248;-63
2023/09/18 03:36:00;;;;;;;;;0.00;0.00;;;;;24.95;100.00;100029.16;2114340;27;46231;-63
2023/09/18 03:37:01;;;;;;;;;2.00;2.00;;;;;24.95;100.00;100037.31;2114257;27;46789;-63
2023/09/18 03:38:02;;;;;;;;;1.00;1.00;;;;;24.94;100.00;100040.16;2114611;27;46346;-64
2023/09/18 03:39:04;;;;;;;;;1.25;1.25;;;;;24.95;100.00;100036.47;2114370;27;46348;-63
2023/09/18 03:40:05;;;;;;;;;1.50;1.50;;;;;24.92;100.00;100043.03;2114505;27;46452;-62
2023/09/18 03:41:06;;;;;;;;;1.75;1.75;;;;;24.91;100.00;100043.19;2113839;27;46744;-63
2023/09/18 03:42:06;;;;;;;;;2.00;1.33;;;;;24.91;100.00;100045.88;2114388;27;46160;-64
2023/09/18 03:43:07;;;;;;;;;1.00;1.00;;;;;24.92;100.00;100036.75;2114493;27;46485;-63
2023/09/18 03:44:07;;;;;;;;;1.33;1.33;;;;;24.93;100.00;100039.31;2113174;27;46502;-64
2023/09/18 03:45:08;;;;;;;;;2.00;2.00;;;;;24.94;100.00;100035.59;2114355;27;46503;-63
2023/09/18 03:46:09;;;;;;;;;0.75;0.75;;;;;24.95;100.00;100037.31;2114273;27;46874;-64
2023/09/18 03:47:09;;;;;;;;;1.00;0.67;;;;;24.98;100.00;100032.59;2113971;27;46554;-63
2023/09/18 03:48:10;;;;;;;;;1.00;1.00;;;;;24.99;100.00;100037.88;2110242;27;46647;-64
2023/09/18 03:49:10;;;;;;;;;1.75;1.75;;;;;24.98;100.00;100029.88;2107286;27;46744;-63
2023/09/18 03:50:11;;;;;;;;;1.33;1.00;;;;;24.97;100.00;100037.16;2114353;27;46593;-64
2023/09/18 03:51:15;;;;;;;;;1.00;1.00;;;;;24.97;100.00;100044.44;2114227;27;46833;-63
2023/09/18 03:52:15;;;;;;;;;1.00;1.00;;;;;24.97;100.00;100039.03;2114389;27;46666;-63
2023/09/18 03:53:16;;;;;;;;;2.00;2.00;;;;;24.97;100.00;100029.03;2113220;27;46409;-64
2023/09/18 03:54:16;;;;;;;;;3.00;2.00;;;;;24.97;100.00;100029.03;2114023;27;46613;-62
2023/09/18 03:55:16;;;;;;;;;2.00;2.00;;;;;24.96;100.00;100038.16;2114296;27;46346;-63
2023/09/18 03:56:17;;;;;;;;;1.67;1.67;;;;;24.94;100.00;100037.47;2114603;27;46542;-64
2023/09/18 03:57:17;;;;;;;;;2.00;2.00;;;;;24.94;100.00;100037.47;2114150;27;46981;-62
2023/09/18 03:58:17;;;;;;;;;1.00;1.00;;;;;24.92;100.00;100034.88;2121636;27;46337;-63
2023/09/18 03:59:18;;;;;;;;;2.67;1.67;;;;;24.91;100.00;100037.75;2118634;27;46375;-62
2023/09/18 04:00:18;;;;;;;;;1.00;1.00;;;;;24.84;100.00;100031.16;2113991;27;46523;-63
2023/09/18 04:01:19;;;;;;;;;2.33;2.33;;;;;24.83;100.00;100026.72;2113182;27;46814;-62
2023/09/18 04:02:21;;;;;;;;;1.00;1.00;;;;;24.82;100.00;100025.88;2113902;27;46544;-63
2023/09/18 04:03:21;;;;;;;;;1.75;1.75;;;;;24.85;100.00;100032.88;2114090;27;46376;-63
2023/09/18 04:04:22;;;;;;;;;2.00;2.00;;;;;24.85;100.00;100030.16;2116121;27;46739;-63
2023/09/18 04:05:22;;;;;;;;;2.00;0.67;;;;;24.80;100.00;100032.44;2114053;27;46597;-62
2023/09/18 04:06:24;;;;;;;;;1.00;1.00;;;;;24.79;100.00;100030.72;2104316;28;46314;-63
2023/09/18 04:07:24;;;;;;;;;1.00;1.00;;;;;24.79;100.00;100026.16;2104195;27;46370;-63
2023/09/18 04:08:24;;;;;;;;;1.00;1.00;;;;;24.79;100.00;100026.16;2105105;28;46680;-64
2023/09/18 04:09:25;;;;;;;;;1.00;1.00;;;;;24.77;100.00;100025.41;2105325;28;46383;-63
2023/09/18 04:10:26;;;;;;;;;1.33;1.33;;;;;24.85;100.00;100025.59;2113772;27;46888;-64
2023/09/18 04:11:26;;;;;;;;;2.00;2.00;;;;;24.81;100.00;100018.72;2113931;27;46391;-64
2023/09/18 04:12:27;;;;;;;;;2.00;2.00;;;;;24.83;100.00;100021.31;2113861;27;46556;-63
2023/09/18 04:13:27;;;;;;;;;1.33;1.33;;;;;24.84;100.00;100023.88;2113974;27;46299;-64
2023/09/18 04:14:27;;;;;;;;;1.33;1.00;;;;;24.81;100.00;100021.44;2113963;27;46740;-64
2023/09/18 04:15:30;;;;;;;;;3.33;1.33;;;;;24.79;100.00;100018.03;2114075;27;46235;-63
2023/09/18 04:16:30;;;;;;;;;1.25;1.25;;;;;24.81;100.00;100029.59;2114389;27;46356;-64
2023/09/18 04:17:31;;;;;;;;;0.67;0.67;;;;;24.79;100.00;100023.44;2114439;27;46316;-63
2023/09/18 04:18:32;;;;;;;;;4.00;2.67;;;;;24.85;100.00;100028.28;2113124;27;46799;-63
2023/09/18 04:19:33;;;;;;;;;1.00;1.00;;;;;24.82;100.00;100025.00;2113942;27;46424;-63
2023/09/18 04:20:35;;;;;;;;;1.00;1.00;;;;;24.81;100.00;100029.59;2114064;27;46271;-64
2023/09/18 04:21:35;;;;;;;;;1.75;1.75;;;;;24.81;100.00;100035.00;2113932;27;46211;-63
2023/09/18 04:22:36;;;;;;;;;2.00;2.00;;;;;24.81;100.00;100037.72;2114042;27;46882;-63
2023/09/18 04:23:36;;;;;;;;;1.00;1.00;;;;;24.84;100.00;100039.28;2113643;27;46500;-63
2023/09/18 04:24:37;;;;;;;;;1.00;1.00;;;;;24.77;100.00;100036.28;2114202;27;45171;-62
2023/09/18 04:25:37;;;;;;;;;1.67;1.00;;;;;24.85;100.00;100032.88;2113801;27;46602;-63
2023/09/18 04:26:37;;;;;;;;;2.00;2.00;;;;;24.88;100.00;100027.16;2119037;27;46504;-63
2023/09/18 04:27:38;;;;;;;;;0.67;0.67;;;;;24.88;100.00;100029.88;2114234;27;46024;-64
2023/09/18 04:28:38;;;;;;;;;0.67;0.67;;;;;24.86;100.00;100026.44;2113386;27;46233;-64
2023/09/18 04:29:38;;;;;;;;;1.00;1.00;;;;;24.91;100.00;100024.19;2113362;27;46714;-63
2023/09/18 04:30:39;;;;;;;;;2.00;2.00;;;;;24.85;100.00;100022.00;2113039;27;46282;-63
2023/09/18 04:31:39;;;;;;;;;2.00;2.00;;;;;24.92;100.00;100018.59;2114149;27;46278;-64
2023/09/18 04:32:40;;;;;;;;;1.00;1.00;;;;;24.92;100.00;100009.59;2113931;27;46300;-64
2023/09/18 04:33:40;;;;;;;;;2.33;2.00;;;;;24.94;100.00;100021.16;2113799;27;46282;-64
2023/09/18 04:34:42;;;;;;;;;0.33;0.33;;;;;24.97;100.00;100020.03;2113452;27;46593;-65
2023/09/18 04:35:44;;;;;;;;;0.75;0.75;;;;;24.96;100.00;100013.75;2114276;27;46272;-65
2023/09/18 04:36:44;;;;;;;;;1.25;1.25;;;;;25.02;100.00;100021.31;2112639;27;46729;-64
2023/09/18 04:37:44;;;;;;;;;2.00;1.67;;;;;25.03;100.00;100025.78;2112981;27;46724;-64
2023/09/18 04:38:45;;;;;;;;;1.00;1.00;;;;;25.03;100.00;100025.78;2114010;27;46367;-64
2023/09/18 04:39:45;;;;;;;;;1.00;1.00;;;;;25.05;100.00;100020.22;2113650;27;46365;-64
2023/09/18 04:40:45;;;;;;;;;2.00;2.00;;;;;25.05;100.00;100028.34;2113382;27;46585;-63